Time;durP1;ratioP1;P1;durP2;ratioP2;P2;SDS_P1;SDS_P2;PMS_P1;PMS_P2;Temp;Humidity;BMP_temperature;BMP_pressure;BME280_temperature;BME280_humidity;BME280_pressure;Samples;Min_cycle;Max_cycle;Signal;HPM_P1;HPM_P2
2023/05/05 00:00:57;;;;;;;;;;;;;;;12.40;79.35;100636.84;4951926;28;20332;-70
2023/05/05 00:04:00;;;;;;;;;;;;;;;12.40;79.09;100631.59;4953038;28;20485;-70
2023/05/05 00:07:03;;;;;;;;;;;;;;;12.23;79.77;100622.94;4955445;28;19937;-70
2023/05/05 00:10:06;;;;;;;;;;;;;;;12.16;80.17;100626.00;4955132;28;19924;-71
2023/05/05 00:13:10;;;;;;;;;;;;;;;12.15;80.29;100630.38;4955148;28;19925;-71
2023/05/05 00:16:13;;;;;;;;;;;;;;;12.19;80.53;100621.44;4955189;28;20025;-70
2023/05/05 00:19:16;;;;;;;;;;;;;;;12.15;80.70;100614.66;4954935;28;20382;-70
2023/05/05 00:22:19;;;;;;;;;;;;;;;12.20;80.70;100622.28;4954961;28;19929;-70
2023/05/05 00:25:22;;;;;;;;;;;;;;;12.36;79.95;100615.19;4954601;28;19929;-71
2023/05/05 00:28:26;;;;;;;;;;;;;;;12.30;80.33;100613.78;4954855;28;19941;-70
2023/05/05 00:31:29;;;;;;;;;;;;;;;12.24;80.23;100608.03;4954824;28;19980;-70
2023/05/05 00:34:32;;;;;;;;;;;;;;;12.20;80.73;100601.28;4954672;28;20035;-71
2023/05/05 00:37:36;;;;;;;;;;;;;;;12.14;80.82;100599.88;4942694;28;19964;-70
2023/05/05 00:40:39;;;;;;;;;;;;;;;12.16;80.61;100594.56;4953628;28;20036;-70
2023/05/05 00:43:42;;;;;;;;;;;;;;;12.14;80.44;100592.00;4942863;28;19941;-71
2023/05/05 00:46:45;;;;;;;;;;;;;;;12.08;80.91;100577.47;4954542;28;19946;-71
2023/05/05 00:49:49;;;;;;;;;;;;;;;12.09;80.82;100583.56;4942860;28;19925;-71
2023/05/05 00:52:53;;;;;;;;;;;;;;;12.06;81.26;100591.59;4954494;28;19926;-71
2023/05/05 00:55:56;;;;;;;;;;;;;;;12.19;80.03;100573.38;4954491;28;19969;-71
2023/05/05 00:59:01;;;;;;;;;;;;;;;12.06;80.51;100581.97;4954459;28;19925;-70
2023/05/05 01:02:04;;;;;;;;;;;;;;;12.04;80.76;100591.69;4954464;28;19930;-71
2023/05/05 01:05:08;;;;;;;;;;;;;;;12.10;80.06;100587.88;4954264;28;20332;-71
2023/05/05 01:08:25;;;;;;;;;;;;;;;12.03;79.76;100590.00;4954334;28;20345;-71
2023/05/05 01:11:34;;;;;;;;;;;;;;;12.01;79.93;100601.50;4954245;28;20298;-71
2023/05/05 01:14:39;;;;;;;;;;;;;;;12.02;79.67;100604.03;4954228;28;19941;-71
2023/05/05 01:17:47;;;;;;;;;;;;;;;11.90;80.04;100598.63;4942241;28;19925;-71
2023/05/05 01:21:09;;;;;;;;;;;;;;;11.91;79.95;100589.88;4942348;28;20013;-71
2023/05/05 01:24:28;;;;;;;;;;;;;;;11.79;80.59;100586.13;4953738;28;19945;-71
2023/05/05 01:27:34;;;;;;;;;;;;;;;11.74;81.16;100590.75;4954050;29;19933;-71
2023/05/05 01:30:40;;;;;;;;;;;;;;;11.78;80.98;100601.00;4942006;29;20476;-71
2023/05/05 01:33:46;;;;;;;;;;;;;;;11.70;81.47;100592.72;4953866;28;19965;-71
2023/05/05 01:37:10;;;;;;;;;;;;;;;11.62;81.81;100600.16;4931141;29;19925;-71
2023/05/05 01:40:20;;;;;;;;;;;;;;;11.62;81.93;100605.41;4953853;28;19926;-71
2023/05/05 01:43:26;;;;;;;;;;;;;;;11.58;82.45;100604.72;4942135;28;20401;-71
2023/05/05 01:46:31;;;;;;;;;;;;;;;11.55;82.25;100598.78;4953680;28;19945;-70
2023/05/05 01:49:34;;;;;;;;;;;;;;;11.53;82.39;100608.53;4953589;28;19929;-71
2023/05/05 01:52:38;;;;;;;;;;;;;;;11.54;82.47;100603.19;4953098;28;20012;-71
2023/05/05 01:55:42;;;;;;;;;;;;;;;11.60;82.28;100599.41;4953567;28;19964;-71
2023/05/05 01:58:46;;;;;;;;;;;;;;;11.55;82.49;100610.13;4953823;28;19925;-71
2023/05/05 02:01:50;;;;;;;;;;;;;;;11.54;82.75;100611.03;4942067;28;19925;-71
2023/05/05 02:04:55;;;;;;;;;;;;;;;11.59;82.52;100606.41;4953424;28;19930;-71
2023/05/05 02:07:59;;;;;;;;;;;;;;;11.50;82.81;100616.53;4941497;29;19926;-71
2023/05/05 02:11:03;;;;;;;;;;;;;;;11.38;83.08;100608.41;4953372;28;19925;-71
2023/05/05 02:14:06;;;;;;;;;;;;;;;11.41;82.97;100620.50;4941457;29;19941;-71
2023/05/05 02:17:10;;;;;;;;;;;;;;;11.40;83.09;100619.66;4941461;29;19980;-70
2023/05/05 02:20:15;;;;;;;;;;;;;;;11.47;83.10;100621.94;4953227;28;19926;-71
2023/05/05 02:23:18;;;;;;;;;;;;;;;11.54;82.60;100628.53;4941198;29;19926;-71
2023/05/05 02:26:23;;;;;;;;;;;;;;;11.41;83.31;100626.56;4941105;28;19929;-70
2023/05/05 02:29:29;;;;;;;;;;;;;;;11.30;83.98;100623.72;4952884;28;19929;-70
2023/05/05 02:32:33;;;;;;;;;;;;;;;11.39;83.54;100631.06;4930231;28;19926;-71
2023/05/05 02:35:38;;;;;;;;;;;;;;;11.33;84.04;100631.41;4930428;28;19933;-71
2023/05/05 02:38:45;;;;;;;;;;;;;;;11.30;84.09;100642.03;4941154;28;20169;-71
2023/05/05 02:41:50;;;;;;;;;;;;;;;11.33;84.05;100636.63;4941139;29;20028;-71
2023/05/05 02:45:03;;;;;;;;;;;;;;;11.37;83.80;100637.31;4951950;28;19930;-71
2023/05/05 02:48:09;;;;;;;;;;;;;;;11.38;83.41;100642.44;4940930;28;19925;-71
2023/05/05 02:51:14;;;;;;;;;;;;;;;11.29;83.81;100639.47;4952265;28;19926;-71
2023/05/05 02:54:18;;;;;;;;;;;;;;;11.25;83.90;100638.81;4952171;28;19961;-71
2023/05/05 02:57:26;;;;;;;;;;;;;;;11.20;84.03;100634.72;4940938;28;19991;-71
2023/05/05 03:00:38;;;;;;;;;;;;;;;11.14;84.38;100635.94;4940805;28;19972;-71
2023/05/05 03:03:57;;;;;;;;;;;;;;;11.12;84.63;100636.00;4940630;28;19964;-71
2023/05/05 03:07:05;;;;;;;;;;;;;;;11.11;84.90;100631.69;4940762;29;19949;-72
2023/05/05 03:10:10;;;;;;;;;;;;;;;11.11;85.03;100636.09;4940691;28;19926;-69
2023/05/05 03:13:19;;;;;;;;;;;;;;;11.11;85.01;100642.16;4940728;28;19926;-69
2023/05/05 03:16:25;;;;;;;;;;;;;;;11.12;85.12;100643.00;4940648;29;20413;-71
2023/05/05 03:19:42;;;;;;;;;;;;;;;11.10;85.28;100642.22;4940660;28;19925;-70
2023/05/05 03:22:45;;;;;;;;;;;;;;;11.02;85.78;100632.16;4940495;29;19926;-70
2023/05/05 03:25:50;;;;;;;;;;;;;;;11.06;85.68;100641.53;4940169;28;19949;-70
2023/05/05 03:29:16;;;;;;;;;;;;;;;11.09;85.87;100635.31;4940354;28;19942;-71
2023/05/05 03:32:20;;;;;;;;;;;;;;;11.02;86.09;100626.09;4940441;28;20354;-70
2023/05/05 03:35:23;;;;;;;;;;;;;;;11.03;86.06;100630.41;4951765;28;19926;-70
2023/05/05 03:38:26;;;;;;;;;;;;;;;11.06;86.13;100633.69;4951759;28;19971;-72
2023/05/05 03:41:30;;;;;;;;;;;;;;;11.06;85.96;100625.00;4943841;28;19929;-71
2023/05/05 03:44:34;;;;;;;;;;;;;;;11.06;85.77;100627.63;4954723;28;19929;-71
2023/05/05 03:47:37;;;;;;;;;;;;;;;11.05;85.80;100639.03;4943469;29;19983;-73
2023/05/05 03:50:45;;;;;;;;;;;;;;;10.94;86.04;100635.22;4943620;28;19968;-94
2023/05/05 03:54:03;;;;;;;;;;;;;;;10.84;86.44;100641.81;4945853;28;20496;-72
2023/05/05 03:57:07;;;;;;;;;;;;;;;10.82;86.37;100646.28;4955370;28;20401;-73
2023/05/05 04:00:10;;;;;;;;;;;;;;;10.81;86.53;100649.81;4955594;28;20449;-72
2023/05/05 04:03:17;;;;;;;;;;;;;;;10.75;86.23;100644.91;4955185;28;19926;-71
2023/05/05 04:06:20;;;;;;;;;;;;;;;10.73;86.35;100646.75;4955087;28;20389;-71
2023/05/05 04:09:24;;;;;;;;;;;;;;;10.66;86.73;100650.63;4955216;28;19968;-71
2023/05/05 04:12:27;;;;;;;;;;;;;;;10.58;86.63;100658.84;4943289;29;20329;-73
2023/05/05 04:15:31;;;;;;;;;;;;;;;10.62;86.44;100654.28;4955056;28;19945;-73
2023/05/05 04:18:35;;;;;;;;;;;;;;;10.62;86.26;100655.13;4954139;28;19976;-73
2023/05/05 04:21:38;;;;;;;;;;;;;;;10.66;86.60;100667.16;4954136;28;19925;-72
2023/05/05 04:24:41;;;;;;;;;;;;;;;10.73;86.26;100664.22;4931105;28;19929;-72
2023/05/05 04:27:45;;;;;;;;;;;;;;;10.63;86.47;100669.06;4941408;28;19929;-73
2023/05/05 04:30:50;;;;;;;;;;;;;;;10.66;86.35;100666.31;4942527;28;19988;-71
2023/05/05 04:33:54;;;;;;;;;;;;;;;10.62;86.73;100667.38;4943298;28;19929;-73
2023/05/05 04:36:57;;;;;;;;;;;;;;;10.64;86.61;100674.22;4942859;29;19925;-74
2023/05/05 04:40:00;;;;;;;;;;;;;;;10.66;86.72;100675.00;4954740;28;20345;-72
2023/05/05 04:43:05;;;;;;;;;;;;;;;10.59;87.05;100676.22;4943059;29;20396;-71
2023/05/05 04:46:09;;;;;;;;;;;;;;;10.63;87.11;100676.91;4954218;28;19933;-71
2023/05/05 04:49:13;;;;;;;;;;;;;;;10.64;87.22;100678.59;4942649;29;20297;-72
2023/05/05 04:52:16;;;;;;;;;;;;;;;10.64;87.15;100683.84;4942336;28;19960;-71
2023/05/05 04:55:19;;;;;;;;;;;;;;;10.75;86.75;100685.91;4942859;28;19980;-74
2023/05/05 04:58:22;;;;;;;;;;;;;;;10.70;87.12;100687.00;4954435;28;19925;-72
2023/05/05 05:01:25;;;;;;;;;;;;;;;10.73;87.04;100686.00;4942805;28;19975;-72
2023/05/05 05:04:29;;;;;;;;;;;;;;;10.81;86.43;100675.13;4953538;28;19925;-71
2023/05/05 05:07:34;;;;;;;;;;;;;;;10.83;86.82;100678.53;4953732;28;20418;-72
2023/05/05 05:10:38;;;;;;;;;;;;;;;10.96;86.12;100689.22;4942705;28;19929;-73
2023/05/05 05:13:41;;;;;;;;;;;;;;;11.07;85.19;100686.88;4942672;28;19932;-72
2023/05/05 05:16:49;;;;;;;;;;;;;;;11.18;84.96;100695.03;4942428;28;19926;-73
2023/05/05 05:19:54;;;;;;;;;;;;;;;11.30;84.39;100691.78;4942401;28;19926;-73
2023/05/05 05:23:00;;;;;;;;;;;;;;;11.41;84.59;100686.78;4954164;28;20290;-73
2023/05/05 05:26:05;;;;;;;;;;;;;;;11.54;83.93;100694.00;4944960;28;20410;-73
2023/05/05 05:29:08;;;;;;;;;;;;;;;11.63;83.26;100696.97;4934133;29;20282;-73
2023/05/05 05:32:11;;;;;;;;;;;;;;;11.71;83.38;100701.81;4934732;29;19930;-73
2023/05/05 05:35:15;;;;;;;;;;;;;;;11.71;84.05;100701.81;4934144;28;19973;-80
2023/05/05 05:38:18;;;;;;;;;;;;;;;11.76;84.07;100702.41;4944975;28;19937;-73
2023/05/05 05:41:22;;;;;;;;;;;;;;;11.86;83.39;100706.22;4944977;28;20018;-73
2023/05/05 05:44:26;;;;;;;;;;;;;;;12.00;83.17;100709.91;4934592;29;19945;-74
2023/05/05 05:47:29;;;;;;;;;;;;;;;11.98;82.65;100712.59;4934543;29;20306;-75
2023/05/05 05:50:34;;;;;;;;;;;;;;;12.06;82.40;100704.28;4934536;29;19977;-75
2023/05/05 05:53:37;;;;;;;;;;;;;;;12.28;82.04;100703.94;4934066;29;19963;-76
2023/05/05 05:56:41;;;;;;;;;;;;;;;12.41;80.69;100709.31;4933244;29;20402;-76
2023/05/05 05:59:44;;;;;;;;;;;;;;;12.47;79.68;100709.81;4933630;29;19969;-74
2023/05/05 06:02:47;;;;;;;;;;;;;;;12.64;79.65;100697.53;4933284;29;19926;-72
2023/05/05 06:05:54;;;;;;;;;;;;;;;12.76;79.78;100702.91;4944621;28;20349;-75
2023/05/05 06:08:58;;;;;;;;;;;;;;;12.96;79.06;100699.09;4944498;28;20341;-73
2023/05/05 06:12:02;;;;;;;;;;;;;;;13.07;78.79;100703.72;4933462;29;19961;-77
2023/05/05 06:15:08;;;;;;;;;;;;;;;12.98;80.03;100694.59;4932681;28;20374;-72
2023/05/05 06:18:11;;;;;;;;;;;;;;;13.04;79.42;100693.38;4944411;29;19925;-73
2023/05/05 06:21:14;;;;;;;;;;;;;;;13.10;79.79;100690.41;4934500;29;19929;-72
2023/05/05 06:24:17;;;;;;;;;;;;;;;13.15;78.56;100695.38;4933166;29;20398;-71
2023/05/05 06:27:46;;;;;;;;;;;;;;;13.19;77.74;100704.75;4933274;29;19930;-72
2023/05/05 06:30:49;;;;;;;;;;;;;;;13.40;76.78;100706.13;4933191;29;19957;-72
2023/05/05 06:33:52;;;;;;;;;;;;;;;13.53;78.42;100698.34;4933737;29;19930;-79
2023/05/05 06:36:56;;;;;;;;;;;;;;;13.69;77.69;100693.81;4934125;29;19925;-75
2023/05/05 06:39:59;;;;;;;;;;;;;;;13.83;76.50;100703.44;4933860;29;19925;-76
2023/05/05 06:43:27;;;;;;;;;;;;;;;13.97;76.44;100699.94;4933806;29;19925;-77
2023/05/05 06:46:35;;;;;;;;;;;;;;;14.01;76.78;100692.69;4944088;29;19934;-77
2023/05/05 06:49:38;;;;;;;;;;;;;;;14.08;76.71;100692.22;4934054;29;19925;-78
2023/05/05 06:52:41;;;;;;;;;;;;;;;14.16;75.61;100695.19;4933646;29;19930;-77
2023/05/05 06:55:45;;;;;;;;;;;;;;;14.26;75.40;100695.44;4933612;29;19930;-80
2023/05/05 06:58:49;;;;;;;;;;;;;;;14.34;75.17;100687.06;4933558;29;19926;-79
2023/05/05 07:01:53;;;;;;;;;;;;;;;14.39;74.60;100687.59;4933565;29;20393;-84
2023/05/05 07:04:56;;;;;;;;;;;;;;;14.47;74.55;100681.84;4932330;29;19972;-77
2023/05/05 07:07:59;;;;;;;;;;;;;;;14.53;74.40;100681.47;4933487;29;19949;-77
2023/05/05 07:11:02;;;;;;;;;;;;;;;14.68;74.83;100679.56;4933434;29;19997;-76
2023/05/05 07:14:05;;;;;;;;;;;;;;;14.76;74.35;100683.38;4932707;29;19965;-76
2023/05/05 07:17:08;;;;;;;;;;;;;;;14.85;74.24;100679.31;4933348;29;19925;-76
2023/05/05 07:20:11;;;;;;;;;;;;;;;15.01;73.81;100682.56;4932562;29;20433;-76
2023/05/05 07:23:14;;;;;;;;;;;;;;;15.07;73.35;100682.16;4933219;29;19929;-76
2023/05/05 07:26:17;;;;;;;;;;;;;;;15.20;73.55;100689.22;4948641;28;19929;-77
2023/05/05 07:29:19;;;;;;;;;;;;;;;15.32;72.95;100685.75;4952354;28;19925;-77
2023/05/05 07:32:23;;;;;;;;;;;;;;;15.46;73.28;100688.25;4952237;28;19941;-76
2023/05/05 07:35:26;;;;;;;;;;;;;;;15.59;73.04;100683.78;4952248;28;20002;-77
2023/05/05 07:38:29;;;;;;;;;;;;;;;15.73;72.84;100682.88;4952151;28;20303;-76
2023/05/05 07:41:32;;;;;;;;;;;;;;;16.08;71.95;100683.88;4952158;28;20346;-76
2023/05/05 07:44:35;;;;;;;;;;;;;;;16.27;72.73;100676.31;4952146;28;19925;-79
2023/05/05 08:01:44;;;;;;;;;;;;;;;17.71;68.26;100682.94;4951877;28;19977;-72
2023/05/05 08:04:47;;;;;;;;;;;;;;;17.75;67.55;100684.41;4951880;28;19925;-71
2023/05/05 08:07:50;;;;;;;;;;;;;;;17.82;67.40;100681.16;4951396;28;20013;-72
2023/05/05 08:10:53;;;;;;;;;;;;;;;17.85;67.04;100688.84;4951864;28;20314;-72
2023/05/05 08:13:56;;;;;;;;;;;;;;;17.98;66.51;100678.13;4951855;28;20064;-72
2023/05/05 08:16:59;;;;;;;;;;;;;;;18.09;65.83;100682.53;4951705;28;19926;-72
2023/05/05 08:20:03;;;;;;;;;;;;;;;18.18;64.70;100676.50;4951685;28;19980;-71
2023/05/05 08:23:06;;;;;;;;;;;;;;;18.22;63.76;100675.31;4951720;28;20063;-72
2023/05/05 08:26:09;;;;;;;;;;;;;;;18.27;64.43;100675.75;4954112;28;19968;-72
2023/05/05 08:29:12;;;;;;;;;;;;;;;18.35;64.26;100677.78;4954972;28;20401;-72
2023/05/05 08:32:15;;;;;;;;;;;;;;;18.52;63.25;100668.44;4954803;28;20405;-72
2023/05/05 08:35:18;;;;;;;;;;;;;;;18.52;63.18;100671.06;4954878;28;20448;-71
2023/05/05 08:38:21;;;;;;;;;;;;;;;18.48;63.77;100661.72;4955093;28;19925;-72
2023/05/05 08:41:25;;;;;;;;;;;;;;;18.59;64.25;100659.81;4954757;28;19941;-72
2023/05/05 08:44:28;;;;;;;;;;;;;;;18.58;63.93;100662.63;4954694;28;19972;-72
2023/05/05 08:47:31;;;;;;;;;;;;;;;18.65;64.01;100662.94;4954564;28;19929;-72
2023/05/05 08:50:35;;;;;;;;;;;;;;;18.66;64.28;100657.50;4954890;28;19928;-72
2023/05/05 08:53:41;;;;;;;;;;;;;;;18.75;64.05;100659.41;4954563;28;19926;-71
2023/05/05 08:56:45;;;;;;;;;;;;;;;18.79;63.59;100650.25;4954465;28;19926;-72
2023/05/05 08:59:48;;;;;;;;;;;;;;;18.75;63.24;100648.81;4954514;28;19941;-72
2023/05/05 09:02:53;;;;;;;;;;;;;;;18.83;62.96;100650.84;4954551;28;19926;-72
2023/05/05 09:05:56;;;;;;;;;;;;;;;18.89;62.89;100644.16;4954323;28;19933;-72
2023/05/05 09:08:59;;;;;;;;;;;;;;;18.96;62.72;100640.03;4954374;28;20291;-72
2023/05/05 09:12:03;;;;;;;;;;;;;;;18.96;62.38;100645.31;4954307;28;20029;-72
2023/05/05 09:15:07;;;;;;;;;;;;;;;19.20;60.00;100647.66;4954222;28;20382;-72
2023/05/05 09:18:13;;;;;;;;;;;;;;;19.17;60.05;100639.97;4954434;28;20417;-72
2023/05/05 09:21:21;;;;;;;;;;;;;;;19.18;59.82;100642.50;4954117;28;19968;-72
2023/05/05 09:24:24;;;;;;;;;;;;;;;19.32;58.75;100645.78;4954118;28;19929;-72
2023/05/05 09:27:27;;;;;;;;;;;;;;;19.56;56.57;100643.63;4954058;28;19995;-71
2023/05/05 09:30:30;;;;;;;;;;;;;;;19.86;52.36;100640.09;4954027;28;19930;-72
2023/05/05 09:33:33;;;;;;;;;;;;;;;19.91;52.87;100634.34;4953934;28;19925;-72
2023/05/05 09:36:41;;;;;;;;;;;;;;;19.86;52.20;100639.25;4953367;28;19965;-72
2023/05/05 09:39:52;;;;;;;;;;;;;;;19.77;53.30;100629.44;4954148;28;20014;-72
2023/05/05 09:43:02;;;;;;;;;;;;;;;19.86;52.24;100636.59;4953840;28;19925;-72
2023/05/05 09:46:06;;;;;;;;;;;;;;;19.94;50.37;100640.25;4953664;29;20445;-72
2023/05/05 09:49:17;;;;;;;;;;;;;;;19.91;51.45;100637.00;4953717;28;19926;-72
2023/05/05 09:52:20;;;;;;;;;;;;;;;19.94;52.16;100636.72;4953633;28;20338;-72
2023/05/05 09:55:23;;;;;;;;;;;;;;;20.00;51.96;100630.88;4953666;28;19926;-72
2023/05/05 09:58:27;;;;;;;;;;;;;;;20.00;51.99;100633.53;4953644;28;20349;-72
2023/05/05 10:01:31;;;;;;;;;;;;;;;20.12;51.38;100626.28;4953534;28;19977;-72
2023/05/05 10:04:34;;;;;;;;;;;;;;;20.13;50.41;100623.50;4953702;28;19925;-73
2023/05/05 10:07:38;;;;;;;;;;;;;;;20.03;50.09;100635.91;4953432;28;20401;-73
2023/05/05 10:10:46;;;;;;;;;;;;;;;20.08;50.05;100623.06;4953356;28;20017;-73
2023/05/05 10:13:50;;;;;;;;;;;;;;;20.25;49.96;100624.19;4953388;28;19925;-72
2023/05/05 10:16:54;;;;;;;;;;;;;;;20.42;49.18;100631.44;4953187;28;19945;-72
2023/05/05 10:19:59;;;;;;;;;;;;;;;20.31;49.70;100628.09;4953271;28;19926;-72
2023/05/05 10:23:04;;;;;;;;;;;;;;;20.41;49.17;100626.25;4953320;29;19926;-72
2023/05/05 10:26:09;;;;;;;;;;;;;;;20.46;49.20;100632.00;4952975;28;20398;-72
2023/05/05 10:29:19;;;;;;;;;;;;;;;20.48;49.03;100635.34;4953081;28;19972;-72
2023/05/05 10:32:31;;;;;;;;;;;;;;;20.53;48.82;100633.13;4953365;29;19941;-72
2023/05/05 10:35:36;;;;;;;;;;;;;;;20.37;48.71;100617.75;4953005;28;19948;-72
2023/05/05 10:38:40;;;;;;;;;;;;;;;20.34;48.55;100618.03;4952238;28;20337;-72
2023/05/05 10:41:45;;;;;;;;;;;;;;;20.35;48.99;100613.53;4953272;29;19925;-72
2023/05/05 10:44:48;;;;;;;;;;;;;;;20.26;48.29;100617.91;4952944;28;19972;-73
2023/05/05 10:47:52;;;;;;;;;;;;;;;20.47;47.67;100616.91;4952176;28;19930;-72
2023/05/05 10:50:59;;;;;;;;;;;;;;;20.74;46.67;100618.81;4952824;28;19925;-71
2023/05/05 10:54:09;;;;;;;;;;;;;;;20.69;45.71;100605.97;4952744;28;19964;-72
2023/05/05 10:57:13;;;;;;;;;;;;;;;20.64;45.01;100606.44;4952714;28;19926;-72
2023/05/05 11:00:35;;;;;;;;;;;;;;;20.73;44.28;100590.59;4952789;28;19964;-71
2023/05/05 11:03:38;;;;;;;;;;;;;;;20.96;43.48;100591.91;4952641;28;20294;-71
2023/05/05 11:07:01;;;;;;;;;;;;;;;21.00;42.90;100582.66;4952522;28;19929;-71
2023/05/05 11:10:04;;;;;;;;;;;;;;;21.16;42.90;100570.56;4940840;28;19991;-72
2023/05/05 11:13:08;;;;;;;;;;;;;;;21.30;43.56;100562.91;4952572;28;20004;-72
2023/05/05 11:16:29;;;;;;;;;;;;;;;21.42;43.08;100560.09;4952074;28;19925;-71
2023/05/05 11:28:07;;;;;;;;;;;;;;;21.53;43.16;100534.09;4914622;29;19978;-73
2023/05/05 11:31:13;;;;;;;;;;;;;;;21.45;41.14;100522.56;4914152;29;19926;-72
2023/05/05 11:34:25;;;;;;;;;;;;;;;21.53;42.33;100514.63;4914432;29;20014;-76
2023/05/05 11:37:28;;;;;;;;;;;;;;;21.77;40.73;100533.50;4914077;29;19941;-73
2023/05/05 11:44:32;;;;;;;;;;;;;;;21.78;41.73;100513.88;4914018;29;19925;-73
2023/05/05 11:47:35;;;;;;;;;;;;;;;22.08;39.02;100524.25;4914038;29;19931;-73
2023/05/05 11:50:38;;;;;;;;;;;;;;;22.12;38.95;100513.16;4913439;29;19926;-71
2023/05/05 11:53:45;;;;;;;;;;;;;;;21.91;38.95;100516.16;4913790;29;19927;-72
2023/05/05 11:56:49;;;;;;;;;;;;;;;21.90;39.30;100519.81;4913746;29;19926;-74
2023/05/05 11:59:56;;;;;;;;;;;;;;;21.99;39.17;100518.06;4914714;29;19981;-75
2023/05/05 12:03:00;;;;;;;;;;;;;;;22.06;38.30;100517.28;4917215;29;20348;-74
2023/05/05 12:06:03;;;;;;;;;;;;;;;22.26;36.96;100519.78;4917117;29;19965;-73
2023/05/05 12:09:16;;;;;;;;;;;;;;;22.37;36.93;100516.03;4917064;29;19974;-73
2023/05/05 12:12:19;;;;;;;;;;;;;;;22.25;36.91;100512.78;4916991;29;20010;-73
2023/05/05 12:15:27;;;;;;;;;;;;;;;22.47;36.91;100516.75;4917049;29;19929;-74
2023/05/05 12:18:30;;;;;;;;;;;;;;;22.48;35.82;100513.94;4916631;29;19977;-73
2023/05/05 12:21:34;;;;;;;;;;;;;;;22.42;36.63;100501.22;4917188;29;19926;-74
2023/05/05 12:24:37;;;;;;;;;;;;;;;22.30;37.37;100499.81;4916812;29;19930;-73
2023/05/05 12:27:50;;;;;;;;;;;;;;;22.64;36.71;100502.53;4935819;29;20349;-75
2023/05/05 12:30:57;;;;;;;;;;;;;;;22.71;34.17;100510.72;4936027;29;19926;-76
2023/05/05 12:34:01;;;;;;;;;;;;;;;22.93;34.00;100499.50;4936031;29;20437;-75
2023/05/05 12:37:05;;;;;;;;;;;;;;;22.91;33.75;100504.16;4935636;29;19926;-71
2023/05/05 12:40:28;;;;;;;;;;;;;;;23.21;33.22;100489.44;4935647;29;20390;-72
2023/05/05 12:43:32;;;;;;;;;;;;;;;23.12;32.87;100497.56;4935573;29;20331;-73
2023/05/05 12:46:44;;;;;;;;;;;;;;;23.34;32.06;100501.47;4935403;29;19950;-71
2023/05/05 12:49:50;;;;;;;;;;;;;;;23.63;33.21;100477.00;4935485;29;20299;-72
2023/05/05 12:52:53;;;;;;;;;;;;;;;23.26;33.45;100488.09;4935483;29;19925;-72
2023/05/05 12:55:58;;;;;;;;;;;;;;;23.28;33.74;100486.94;4935667;29;19926;-74
2023/05/05 12:59:06;;;;;;;;;;;;;;;23.61;34.04;100484.31;4934915;29;19973;-72
2023/05/05 13:02:09;;;;;;;;;;;;;;;23.43;34.09;100471.97;4934613;29;20012;-72
2023/05/05 13:05:12;;;;;;;;;;;;;;;23.17;35.11;100489.94;4932996;29;20405;-73
2023/05/05 13:08:17;;;;;;;;;;;;;;;22.91;35.80;100489.97;4932823;29;20441;-73
2023/05/05 13:11:20;;;;;;;;;;;;;;;22.58;37.04;100483.66;4933760;29;20069;-73
2023/05/05 13:14:23;;;;;;;;;;;;;;;22.54;37.40;100474.34;4935162;29;20352;-73
2023/05/05 13:17:26;;;;;;;;;;;;;;;22.63;36.51;100476.88;4935051;29;19925;-71
2023/05/05 13:20:29;;;;;;;;;;;;;;;22.54;37.07;100479.66;4935115;29;20460;-74
2023/05/05 13:23:33;;;;;;;;;;;;;;;22.61;36.42;100467.34;4934972;29;19965;-72
2023/05/05 13:26:36;;;;;;;;;;;;;;;22.74;36.58;100470.41;4948358;29;19929;-72
2023/05/05 13:29:40;;;;;;;;;;;;;;;22.61;35.63;100454.88;4953993;29;19971;-72
2023/05/05 13:32:43;;;;;;;;;;;;;;;22.88;35.57;100451.16;4942104;29;19972;-72
2023/05/05 13:35:46;;;;;;;;;;;;;;;22.74;36.04;100457.09;4953962;28;19941;-72
2023/05/05 13:38:49;;;;;;;;;;;;;;;22.40;36.26;100460.63;4954181;28;20373;-72
2023/05/05 13:41:53;;;;;;;;;;;;;;;22.26;37.11;100464.69;4953071;28;19980;-72
2023/05/05 13:44:56;;;;;;;;;;;;;;;22.54;35.85;100463.66;4941986;28;20018;-73
2023/05/05 13:48:00;;;;;;;;;;;;;;;22.42;35.28;100469.25;4953848;28;19976;-74
2023/05/05 13:51:05;;;;;;;;;;;;;;;22.19;36.27;100462.81;4953698;28;19929;-73
2023/05/05 13:54:08;;;;;;;;;;;;;;;22.24;36.63;100465.84;4953641;28;19929;-73
2023/05/05 13:57:11;;;;;;;;;;;;;;;22.28;37.19;100473.34;4953624;28;19964;-73
2023/05/05 14:00:15;;;;;;;;;;;;;;;22.19;38.02;100479.63;4953524;28;19929;-73
2023/05/05 14:03:18;;;;;;;;;;;;;;;22.19;39.08;100476.13;4953352;28;19926;-74
2023/05/05 14:06:21;;;;;;;;;;;;;;;21.74;39.53;100480.59;4953233;28;19945;-74
2023/05/05 14:09:24;;;;;;;;;;;;;;;21.52;40.19;100487.22;4953257;28;19926;-73
2023/05/05 14:12:27;;;;;;;;;;;;;;;21.59;40.82;100490.91;4951540;28;20005;-74
2023/05/05 14:15:31;;;;;;;;;;;;;;;21.55;40.99;100492.22;4952822;28;19930;-74
2023/05/05 14:18:34;;;;;;;;;;;;;;;21.43;41.50;100484.63;4951876;28;19975;-74
2023/05/05 14:21:38;;;;;;;;;;;;;;;21.38;41.97;100490.41;4950549;28;20421;-74
2023/05/05 14:24:40;;;;;;;;;;;;;;;21.36;41.42;100493.19;4950660;28;19941;-74
2023/05/05 14:27:43;;;;;;;;;;;;;;;21.29;42.49;100499.25;4950280;28;19949;-73
2023/05/05 14:30:46;;;;;;;;;;;;;;;20.73;48.23;100518.84;4952410;28;19925;-72
2023/05/05 14:33:52;;;;;;;;;;;;;;;20.51;49.51;100520.88;4950986;28;19925;-72
2023/05/05 14:36:56;;;;;;;;;;;;;;;20.49;50.79;100522.81;4951734;28;19965;-72
2023/05/05 14:39:59;;;;;;;;;;;;;;;20.59;51.99;100526.31;4952621;28;19976;-72
2023/05/05 14:43:02;;;;;;;;;;;;;;;20.57;52.49;100522.94;4949608;28;19926;-75
2023/05/05 14:46:05;;;;;;;;;;;;;;;20.13;53.78;100525.28;4950038;28;20382;-76
2023/05/05 14:49:09;;;;;;;;;;;;;;;20.06;54.67;100518.84;4949521;28;19924;-73
2023/05/05 14:52:16;;;;;;;;;;;;;;;20.28;54.08;100522.16;4951842;28;20385;-72
2023/05/05 14:55:19;;;;;;;;;;;;;;;20.33;54.49;100514.63;4950105;28;19926;-73
2023/05/05 14:58:23;;;;;;;;;;;;;;;20.19;54.71;100514.06;4949830;28;20001;-73
2023/05/05 15:01:28;;;;;;;;;;;;;;;20.20;54.86;100518.41;4995374;28;19925;-74
2023/05/05 15:04:35;;;;;;;;;;;;;;;20.19;54.45;100523.84;4952064;28;20448;-74
2023/05/05 15:07:39;;;;;;;;;;;;;;;20.20;54.22;100530.84;4950843;28;20041;-73
2023/05/05 15:10:41;;;;;;;;;;;;;;;20.29;53.74;100531.78;4952126;28;19929;-74
2023/05/05 15:13:44;;;;;;;;;;;;;;;20.60;53.19;100529.78;4952051;28;20013;-74
2023/05/05 15:16:57;;;;;;;;;;;;;;;20.44;53.71;100528.53;4950736;28;19926;-73
2023/05/05 15:20:00;;;;;;;;;;;;;;;20.49;54.17;100530.78;4949254;28;19926;-73
2023/05/05 15:23:03;;;;;;;;;;;;;;;20.78;52.93;100522.75;4949892;28;19925;-74
2023/05/05 15:26:10;;;;;;;;;;;;;;;20.61;52.10;100519.03;4927395;28;19929;-74
2023/05/05 15:29:31;;;;;;;;;;;;;;;21.50;51.35;100520.25;4932189;29;19973;-72
2023/05/05 15:32:35;;;;;;;;;;;;;;;21.44;50.41;100510.22;4931580;29;19926;-77
2023/05/05 15:39:35;;;;;;;;;;;;;;;21.07;49.99;100519.13;4935715;29;19988;-76
2023/05/05 15:42:38;;;;;;;;;;;;;;;20.92;48.45;100510.78;4935251;29;19973;-77
2023/05/05 15:45:47;;;;;;;;;;;;;;;20.81;48.28;100503.03;4943258;28;19970;-82
2023/05/05 15:48:50;;;;;;;;;;;;;;;20.70;48.58;100506.69;4935921;29;19980;-74
2023/05/05 15:51:53;;;;;;;;;;;;;;;20.66;48.96;100508.78;4934529;29;19925;-71
2023/05/05 15:54:56;;;;;;;;;;;;;;;20.40;48.77;100515.72;4946211;29;20045;-75
2023/05/05 15:57:59;;;;;;;;;;;;;;;20.31;49.46;100508.59;4935059;29;19976;-75
2023/05/05 16:01:05;;;;;;;;;;;;;;;20.51;49.24;100510.25;4934102;29;19941;-74
2023/05/05 16:04:08;;;;;;;;;;;;;;;20.43;49.33;100512.78;4934621;29;19962;-76
2023/05/05 16:07:11;;;;;;;;;;;;;;;20.09;50.01;100507.94;4934430;29;19932;-73
2023/05/05 16:10:16;;;;;;;;;;;;;;;20.21;49.79;100509.47;4934384;29;20347;-78
2023/05/05 16:13:19;;;;;;;;;;;;;;;20.46;49.23;100512.47;4934466;29;19930;-77
2023/05/05 16:16:22;;;;;;;;;;;;;;;20.71;49.22;100508.38;4934150;29;19941;-78
2023/05/05 16:19:25;;;;;;;;;;;;;;;20.50;49.12;100511.19;4934369;29;19941;-77